Main page


Airports :

Zadar, Croatia

Zadar Airport

latitude: 44-06N, longitude: 015-21E, elevation: 82 m

Current weather observation

The report was made 24 minutes ago, at 17:00 UTC
Wind 6 kt from the East/Northeast, varying between North and East/Southeast
Temperature 9°C
Humidity 43%
Pressure 1004 hPa
Visibility 10 km or more
Few clouds at a height of 5000 ft
Broken clouds at a height of 7000 ft

METAR: LDZD 241700Z 07006KT 010V110 9999 FEW050 BKN070 09/M03 Q1004 NOSIG

Time: 18:24 (17:24 UTC)


The report was made 5 hours and 59 minutes ago, at 11:25 UTC
Forecast valid from 24 at 12 UTC to 25 at 12 UTC
Wind 8 kt from the East/Northeast
Visibility 10 km or more
no clouds below 1500 m and no cumulonimbus
from 24 at 18 UTC to 24 at 20 UTC
Wind 7 kt from the East/Southeast

TAF: LDZD 241125Z 2412/2512 06008KT CAVOK TX13/2511Z TN00/2505Z BECMG 2418/2420 12007KT

Weather observations and forecasts of more than 4000 airports (METAR and TAF reports).

The available stations are represented by yellow and red dots on the map.

Hover mouse over dot to see the name of the station.

Then click to see weather observations and forecasts.

To change the map : click on the green buttons with a black cross to zoom in, on the green button with a dash to zoom out, or on the green arrows for adjacent maps.